Time;durP1;ratioP1;P1;durP2;ratioP2;P2;SDS_P1;SDS_P2;PMS_P1;PMS_P2;Temp;Humidity;BMP_temperature;BMP_pressure;BME280_temperature;BME280_humidity;BME280_pressure;Samples;Min_cycle;Max_cycle;Signal;HPM_P1;HPM_P2
2024/04/01 00:02:09;;;;;;;12.63;7.25;;;;;;;;;;6275032;28;20043;-73
2024/04/01 00:05:10;;;;;;;8.27;4.45;;;;;;;;;;6271271;28;20059;-73
2024/04/01 00:08:12;;;;;;;13.60;5.38;;;;;;;;;;6273553;28;20117;-73
2024/04/01 00:11:13;;;;;;;11.88;6.80;;;;;;;;;;6291334;28;20040;-73
2024/04/01 00:14:14;;;;;;;11.98;6.47;;;;;;;;;;6259474;28;20052;-73
2024/04/01 00:17:16;;;;;;;9.20;4.47;;;;;;;;;;6288992;28;20055;-73
2024/04/01 00:20:17;;;;;;;8.63;5.22;;;;;;;;;;6274004;28;20043;-73
2024/04/01 00:23:18;;;;;;;13.13;4.90;;;;;;;;;;6275873;28;20043;-73
2024/04/01 00:26:19;;;;;;;12.30;5.40;;;;;;;;;;6272756;28;20099;-73
2024/04/01 00:29:20;;;;;;;14.73;5.50;;;;;;;;;;6272856;28;20048;-72
2024/04/01 00:32:21;;;;;;;15.93;5.10;;;;;;;;;;6272968;28;20052;-72
2024/04/01 00:35:23;;;;;;;10.43;5.95;;;;;;;;;;6287142;28;20052;-72
2024/04/01 00:38:24;;;;;;;10.15;5.07;;;;;;;;;;6276941;28;20071;-73
2024/04/01 00:41:27;;;;;;;7.95;2.20;;;;;;;;;;6255219;28;20485;-73
2024/04/01 00:44:28;;;;;;;8.75;4.68;;;;;;;;;;6258274;28;20047;-73
2024/04/01 00:47:30;;;;;;;16.20;6.32;;;;;;;;;;6239327;28;20578;-73
2024/04/01 00:50:31;;;;;;;14.55;4.93;;;;;;;;;;6272318;28;20047;-72
2024/04/01 00:53:32;;;;;;;11.45;6.35;;;;;;;;;;6257170;28;20051;-73
2024/04/01 00:56:36;;;;;;;8.23;4.75;;;;;;;;;;6255697;28;20036;-73
2024/04/01 00:59:37;;;;;;;12.40;4.70;;;;;;;;;;6276156;28;20078;-73
2024/04/01 01:02:38;;;;;;;12.35;4.22;;;;;;;;;;6282263;28;20040;-73
2024/04/01 01:05:40;;;;;;;9.02;4.65;;;;;;;;;;6289068;28;20036;-72
2024/04/01 01:08:42;;;;;;;16.25;4.53;;;;;;;;;;6276883;28;20071;-73
2024/04/01 01:11:43;;;;;;;14.50;6.53;;;;;;;;;;6274047;28;20078;-73
2024/04/01 01:14:44;;;;;;;13.27;4.90;;;;;;;;;;6262048;28;20052;-73
2024/04/01 01:17:45;;;;;;;13.20;4.82;;;;;;;;;;6282357;28;20076;-73
2024/04/01 01:20:47;;;;;;;12.25;5.22;;;;;;;;;;6292741;28;20511;-73
2024/04/01 01:23:48;;;;;;;15.95;5.53;;;;;;;;;;6314069;28;20049;-73
2024/04/01 01:26:49;;;;;;;15.38;5.85;;;;;;;;;;6260044;28;20049;-72
2024/04/01 01:29:50;;;;;;;10.35;4.63;;;;;;;;;;6292427;28;20840;-73
2024/04/01 01:32:55;;;;;;;14.60;4.40;;;;;;;;;;6278865;28;20113;-73
2024/04/01 01:35:58;;;;;;;11.57;5.05;;;;;;;;;;6277827;28;20044;-71
2024/04/01 01:38:59;;;;;;;17.50;5.75;;;;;;;;;;6299661;28;20056;-74
2024/04/01 01:42:00;;;;;;;16.40;5.22;;;;;;;;;;6278799;28;20055;-73
2024/04/01 01:45:03;;;;;;;17.77;6.32;;;;;;;;;;6305038;28;20607;-73
2024/04/01 01:48:05;;;;;;;8.90;2.08;;;;;;;;;;6292571;28;20824;-73
2024/04/01 01:51:06;;;;;;;15.48;7.40;;;;;;;;;;6283815;28;20058;-73
2024/04/01 01:54:07;;;;;;;14.60;6.30;;;;;;;;;;6291309;28;20094;-73
2024/04/01 01:57:09;;;;;;;11.77;6.20;;;;;;;;;;6284614;28;20043;-73
2024/04/01 02:00:13;;;;;;;16.35;6.63;;;;;;;;;;6295520;28;20131;-73
2024/04/01 02:03:14;;;;;;;17.73;5.70;;;;;;;;;;6258548;28;20089;-73
2024/04/01 02:06:15;;;;;;;14.65;5.53;;;;;;;;;;6269310;28;20055;-72
2024/04/01 02:09:17;;;;;;;10.88;5.80;;;;;;;;;;6294693;28;20036;-73
2024/04/01 02:12:18;;;;;;;6.97;4.75;;;;;;;;;;6258979;28;20040;-73
2024/04/01 02:15:20;;;;;;;16.77;6.40;;;;;;;;;;6296607;28;20044;-73
2024/04/01 02:18:21;;;;;;;11.20;5.80;;;;;;;;;;6279344;28;20212;-73
2024/04/01 02:21:22;;;;;;;16.85;6.25;;;;;;;;;;6292271;28;20673;-73
2024/04/01 02:24:25;;;;;;;11.35;4.90;;;;;;;;;;6282652;28;20054;-73
2024/04/01 02:27:27;;;;;;;13.98;6.47;;;;;;;;;;6293688;28;20036;-73
2024/04/01 02:30:28;;;;;;;16.25;7.53;;;;;;;;;;6273054;28;20212;-73
2024/04/01 02:33:29;;;;;;;19.38;4.78;;;;;;;;;;6261574;28;20052;-73
2024/04/01 02:36:30;;;;;;;14.60;5.82;;;;;;;;;;6251588;28;20799;-72
2024/04/01 02:39:31;;;;;;;16.08;5.25;;;;;;;;;;6295416;28;20050;-73
2024/04/01 02:42:32;;;;;;;18.15;2.78;;;;;;;;;;6257524;28;20689;-73
2024/04/01 02:45:33;;;;;;;13.57;6.20;;;;;;;;;;6293711;28;20051;-73
2024/04/01 02:48:35;;;;;;;17.10;4.57;;;;;;;;;;6296144;28;20052;-72
2024/04/01 02:51:37;;;;;;;11.85;4.97;;;;;;;;;;6291032;28;20052;-72
2024/04/01 02:54:38;;;;;;;19.00;3.47;;;;;;;;;;6274854;28;20458;-73
2024/04/01 02:57:40;;;;;;;13.65;2.80;;;;;;;;;;6286336;28;20989;-72
2024/04/01 03:00:45;;;;;;;12.18;5.25;;;;;;;;;;6277217;28;20055;-73
2024/04/01 03:03:47;;;;;;;13.32;4.38;;;;;;;;;;6275556;28;20060;-73
2024/04/01 03:06:49;;;;;;;13.77;6.47;;;;;;;;;;6278708;28;20066;-73
2024/04/01 03:09:54;;;;;;;11.95;4.93;;;;;;;;;;6293312;28;20044;-73
2024/04/01 03:12:56;;;;;;;10.50;4.78;;;;;;;;;;6289482;28;20051;-73
2024/04/01 03:15:57;;;;;;;14.10;6.50;;;;;;;;;;6278664;28;20044;-73
2024/04/01 03:18:58;;;;;;;14.48;6.40;;;;;;;;;;6288777;28;20050;-73
2024/04/01 03:22:00;;;;;;;11.65;5.63;;;;;;;;;;6273836;28;20055;-73
2024/04/01 03:25:01;;;;;;;15.35;5.10;;;;;;;;;;6278260;28;20072;-74
2024/04/01 03:28:03;;;;;;;14.20;2.90;;;;;;;;;;6280168;28;20481;-73
2024/04/01 03:31:05;;;;;;;10.57;4.75;;;;;;;;;;6289508;28;20044;-73
2024/04/01 03:34:15;;;;;;;9.27;5.43;;;;;;;;;;6306325;28;20051;-73
2024/04/01 03:37:16;;;;;;;16.17;6.03;;;;;;;;;;6276732;28;20118;-73
2024/04/01 03:40:19;;;;;;;18.88;5.25;;;;;;;;;;6269929;28;20056;-73
2024/04/01 03:43:20;;;;;;;13.55;6.72;;;;;;;;;;6288477;28;20750;-73
2024/04/01 03:46:22;;;;;;;15.30;5.75;;;;;;;;;;6271045;28;20044;-73
2024/04/01 03:49:23;;;;;;;22.25;5.05;;;;;;;;;;6278777;28;20183;-73
2024/04/01 03:52:24;;;;;;;21.85;6.20;;;;;;;;;;6273218;28;20052;-73
2024/04/01 03:55:26;;;;;;;13.13;3.35;;;;;;;;;;6272303;28;20588;-73
2024/04/01 03:58:27;;;;;;;19.45;6.03;;;;;;;;;;6275799;28;20056;-73
2024/04/01 04:01:29;;;;;;;15.63;6.05;;;;;;;;;;6289659;28;20040;-73
2024/04/01 04:04:30;;;;;;;15.65;6.63;;;;;;;;;;6245228;28;20048;-73
2024/04/01 04:07:31;;;;;;;21.58;5.53;;;;;;;;;;6255861;28;20085;-73
2024/04/01 04:10:32;;;;;;;18.42;3.75;;;;;;;;;;6288993;28;20459;-73
2024/04/01 04:13:34;;;;;;;14.95;5.57;;;;;;;;;;6269189;28;20139;-73
2024/04/01 04:16:35;;;;;;;16.90;5.32;;;;;;;;;;6287399;28;20043;-73
2024/04/01 04:19:36;;;;;;;22.67;5.22;;;;;;;;;;6288042;28;20105;-73
2024/04/01 04:22:38;;;;;;;17.88;5.70;;;;;;;;;;6287197;28;20044;-72
2024/04/01 04:25:41;;;;;;;24.77;7.50;;;;;;;;;;6288640;28;20051;-73
2024/04/01 04:28:42;;;;;;;16.70;5.28;;;;;;;;;;6288766;28;20048;-73
2024/04/01 04:31:54;;;;;;;22.55;6.57;;;;;;;;;;6288080;28;20032;-73
2024/04/01 04:34:55;;;;;;;21.20;5.82;;;;;;;;;;6291311;28;20103;-73
2024/04/01 04:37:57;;;;;;;9.93;4.95;;;;;;;;;;6277840;28;20075;-74
2024/04/01 04:40:58;;;;;;;14.40;5.68;;;;;;;;;;6252380;28;20546;-74
2024/04/01 04:44:00;;;;;;;18.48;6.25;;;;;;;;;;6289239;28;20040;-74
2024/04/01 04:47:02;;;;;;;17.17;3.00;;;;;;;;;;6271847;28;20693;-72
2024/04/01 04:50:03;;;;;;;15.05;5.85;;;;;;;;;;6290268;28;20063;-73
2024/04/01 04:53:04;;;;;;;16.30;5.93;;;;;;;;;;6291076;28;20047;-73
2024/04/01 04:56:05;;;;;;;17.02;6.40;;;;;;;;;;6294478;28;20072;-73
2024/04/01 04:59:10;;;;;;;22.10;8.13;;;;;;;;;;6258826;28;20109;-73
2024/04/01 05:02:12;;;;;;;17.98;5.85;;;;;;;;;;6290149;28;20109;-73
2024/04/01 05:05:14;;;;;;;19.80;9.25;;;;;;;;;;6293884;28;20040;-73
2024/04/01 05:08:15;;;;;;;24.83;9.55;;;;;;;;;;6290750;28;20063;-73
2024/04/01 05:11:17;;;;;;;19.98;7.57;;;;;;;;;;6295444;28;20133;-73
2024/04/01 05:14:18;;;;;;;22.85;6.55;;;;;;;;;;6275694;28;20044;-74
2024/04/01 05:17:19;;;;;;;29.35;3.90;;;;;;;;;;6256196;28;20552;-73
2024/04/01 05:20:20;;;;;;;23.05;9.05;;;;;;;;;;6266954;28;20097;-73
2024/04/01 05:23:22;;;;;;;30.13;9.30;;;;;;;;;;6291630;28;20056;-73
2024/04/01 05:26:23;;;;;;;11.50;7.03;;;;;;;;;;6291160;28;20040;-74
2024/04/01 05:29:24;;;;;;;21.83;6.45;;;;;;;;;;6286698;28;20040;-73
2024/04/01 05:32:25;;;;;;;24.63;6.95;;;;;;;;;;6256638;28;20609;-72
2024/04/01 05:35:29;;;;;;;20.00;4.70;;;;;;;;;;6255783;28;20539;-73
2024/04/01 05:38:30;;;;;;;12.13;7.25;;;;;;;;;;6287457;28;20052;-73
2024/04/01 05:41:32;;;;;;;12.18;3.45;;;;;;;;;;6319246;28;20453;-74
2024/04/01 05:44:34;;;;;;;19.90;6.20;;;;;;;;;;6287536;28;20083;-73
2024/04/01 05:47:36;;;;;;;18.50;6.78;;;;;;;;;;6306101;28;20503;-73
2024/04/01 05:50:37;;;;;;;32.88;7.72;;;;;;;;;;6287311;28;20044;-73
2024/04/01 05:53:38;;;;;;;36.45;9.68;;;;;;;;;;6305794;28;20071;-73
2024/04/01 05:56:41;;;;;;;38.50;18.75;;;;;;;;;;6262676;28;20046;-73
2024/04/01 05:59:44;;;;;;;21.80;7.40;;;;;;;;;;6291673;28;20040;-74
2024/04/01 06:02:49;;;;;;;25.17;7.60;;;;;;;;;;6276788;28;20069;-74
2024/04/01 06:05:50;;;;;;;16.20;7.55;;;;;;;;;;6258345;28;20048;-74
2024/04/01 06:08:51;;;;;;;18.75;6.40;;;;;;;;;;6291087;28;20557;-74
2024/04/01 06:11:53;;;;;;;29.60;14.75;;;;;;;;;;6278417;28;20044;-74
2024/04/01 06:14:54;;;;;;;21.88;7.63;;;;;;;;;;6289912;28;20100;-74
2024/04/01 06:17:56;;;;;;;12.15;5.05;;;;;;;;;;6283499;28;20063;-74
2024/04/01 06:20:57;;;;;;;25.33;6.65;;;;;;;;;;6309157;28;20048;-74
2024/04/01 06:23:58;;;;;;;18.15;4.00;;;;;;;;;;6258671;28;20736;-75
2024/04/01 06:27:00;;;;;;;22.60;7.65;;;;;;;;;;6298366;28;20780;-74
2024/04/01 06:30:01;;;;;;;22.65;5.57;;;;;;;;;;6275520;28;20101;-75
2024/04/01 06:33:03;;;;;;;16.63;3.38;;;;;;;;;;6276804;28;20584;-74
2024/04/01 06:36:05;;;;;;;22.60;5.75;;;;;;;;;;6278432;28;20430;-74
2024/04/01 06:39:10;;;;;;;17.17;5.68;;;;;;;;;;6248760;28;20068;-74
2024/04/01 06:42:11;;;;;;;26.70;5.85;;;;;;;;;;6282911;28;20075;-74
2024/04/01 06:45:12;;;;;;;18.98;6.75;;;;;;;;;;6275316;28;20160;-73
2024/04/01 06:48:14;;;;;;;17.17;5.03;;;;;;;;;;6278152;28;20059;-73
2024/04/01 06:51:15;;;;;;;19.48;5.20;;;;;;;;;;6275190;28;20127;-74
2024/04/01 06:54:17;;;;;;;16.27;4.70;;;;;;;;;;6280888;28;20534;-74
2024/04/01 06:57:18;;;;;;;10.65;5.28;;;;;;;;;;6277204;28;20047;-74
2024/04/01 07:00:19;;;;;;;14.20;7.18;;;;;;;;;;6290884;28;20079;-74
2024/04/01 07:03:20;;;;;;;16.50;8.98;;;;;;;;;;6295607;28;20080;-74
2024/04/01 07:06:22;;;;;;;22.17;10.32;;;;;;;;;;6248535;28;20080;-73
2024/04/01 07:09:23;;;;;;;23.02;5.63;;;;;;;;;;6255643;28;20640;-75
2024/04/01 07:12:25;;;;;;;31.65;11.27;;;;;;;;;;6287713;28;20044;-75
2024/04/01 07:15:26;;;;;;;23.92;9.30;;;;;;;;;;6258723;28;20048;-75
2024/04/01 07:18:29;;;;;;;19.55;8.13;;;;;;;;;;6297222;28;20122;-75
2024/04/01 07:21:32;;;;;;;11.40;5.22;;;;;;;;;;6290417;28;20055;-74
2024/04/01 07:24:33;;;;;;;17.17;4.90;;;;;;;;;;6276846;28;20044;-74
2024/04/01 07:27:34;;;;;;;17.23;6.90;;;;;;;;;;6304818;28;20036;-74
2024/04/01 07:30:36;;;;;;;14.70;4.10;;;;;;;;;;6275227;28;20507;-75
2024/04/01 07:33:37;;;;;;;16.27;2.58;;;;;;;;;;6297580;28;20048;-75
2024/04/01 07:36:38;;;;;;;17.75;4.95;;;;;;;;;;6272409;28;20051;-74
2024/04/01 07:39:39;;;;;;;12.65;3.83;;;;;;;;;;6275912;28;20103;-74
2024/04/01 07:42:45;;;;;;;15.15;4.00;;;;;;;;;;6274067;28;20048;-75
2024/04/01 07:45:46;;;;;;;14.07;3.97;;;;;;;;;;6273159;28;20061;-74
2024/04/01 07:48:47;;;;;;;16.05;5.05;;;;;;;;;;6295863;28;20075;-74
2024/04/01 07:51:50;;;;;;;10.88;2.55;;;;;;;;;;6289713;28;20075;-75
2024/04/01 07:54:51;;;;;;;12.05;4.05;;;;;;;;;;6248822;28;20047;-75
2024/04/01 07:57:52;;;;;;;19.38;4.53;;;;;;;;;;6286496;28;20538;-75
2024/04/01 08:00:57;;;;;;;12.30;2.30;;;;;;;;;;6286437;28;21644;-76
2024/04/01 08:03:58;;;;;;;13.07;2.47;;;;;;;;;;6300097;28;20580;-74
2024/04/01 08:07:01;;;;;;;23.35;2.97;;;;;;;;;;6300852;28;20036;-76
2024/04/01 08:10:03;;;;;;;13.95;4.18;;;;;;;;;;6286978;28;20105;-75
2024/04/01 08:13:05;;;;;;;9.95;4.03;;;;;;;;;;6283651;28;20044;-76
2024/04/01 08:16:06;;;;;;;12.02;2.88;;;;;;;;;;6269842;28;20458;-76
2024/04/01 08:19:07;;;;;;;15.75;1.95;;;;;;;;;;6285669;28;20044;-75
2024/04/01 08:22:11;;;;;;;15.65;3.78;;;;;;;;;;6258039;28;20044;-75
2024/04/01 08:25:13;;;;;;;13.75;5.30;;;;;;;;;;6275714;28;20089;-75
2024/04/01 08:28:14;;;;;;;18.92;2.55;;;;;;;;;;6270622;28;20047;-76
2024/04/01 08:31:16;;;;;;;25.75;5.75;;;;;;;;;;6299152;28;20078;-76
2024/04/01 08:34:17;;;;;;;13.27;3.50;;;;;;;;;;6277415;28;20669;-75
2024/04/01 08:37:18;;;;;;;18.42;5.82;;;;;;;;;;6293014;28;20074;-76
2024/04/01 08:40:19;;;;;;;14.27;4.28;;;;;;;;;;6269085;28;20703;-75
2024/04/01 08:43:55;;;;;;;14.60;2.30;;;;;;;;;;6287700;28;20109;-75
2024/04/01 08:46:59;;;;;;;18.55;4.90;;;;;;;;;;6287446;28;20048;-75
2024/04/01 08:50:05;;;;;;;14.75;2.55;;;;;;;;;;6289623;28;20043;-76
2024/04/01 08:53:24;;;;;;;18.25;5.78;;;;;;;;;;6304924;28;20044;-76
2024/04/01 08:56:31;;;;;;;16.48;5.68;;;;;;;;;;6287698;28;20043;-75
2024/04/01 08:59:33;;;;;;;19.25;2.85;;;;;;;;;;6279590;28;20881;-74
2024/04/01 09:02:34;;;;;;;26.25;4.15;;;;;;;;;;6259158;28;20976;-75
2024/04/01 09:05:35;;;;;;;19.92;5.43;;;;;;;;;;6277031;28;20048;-74
2024/04/01 09:08:36;;;;;;;16.73;3.25;;;;;;;;;;6276940;28;20063;-75
2024/04/01 09:11:38;;;;;;;22.50;5.85;;;;;;;;;;6257163;28;20048;-75
2024/04/01 09:14:40;;;;;;;20.42;2.67;;;;;;;;;;6294826;28;20044;-75
2024/04/01 09:17:41;;;;;;;22.98;4.93;;;;;;;;;;6304994;28;20070;-75
2024/04/01 09:20:44;;;;;;;25.13;2.83;;;;;;;;;;6242263;28;20059;-75
2024/04/01 09:23:46;;;;;;;17.90;4.03;;;;;;;;;;6271001;28;20040;-75
2024/04/01 09:26:48;;;;;;;19.52;2.65;;;;;;;;;;6292503;28;20054;-75
2024/04/01 09:29:49;;;;;;;27.10;5.43;;;;;;;;;;6278258;28;20137;-75
2024/04/01 09:32:50;;;;;;;24.02;4.05;;;;;;;;;;6262702;28;20432;-75
2024/04/01 09:35:52;;;;;;;15.20;4.63;;;;;;;;;;6278117;28;20056;-75
2024/04/01 09:38:57;;;;;;;27.38;5.55;;;;;;;;;;6262154;28;20086;-75
2024/04/01 09:41:58;;;;;;;18.25;2.78;;;;;;;;;;6280419;28;20084;-75
2024/04/01 09:45:00;;;;;;;20.90;5.47;;;;;;;;;;6302032;28;20123;-75
2024/04/01 09:48:02;;;;;;;21.75;4.70;;;;;;;;;;6292231;28;20469;-75
2024/04/01 09:51:04;;;;;;;17.23;3.10;;;;;;;;;;6293519;28;20101;-75
2024/04/01 09:54:06;;;;;;;26.30;5.72;;;;;;;;;;6263933;28;20052;-75
2024/04/01 09:57:28;;;;;;;29.00;6.72;;;;;;;;;;6277716;28;20036;-75
2024/04/01 10:00:43;;;;;;;;;;;;;;;;;;6292140;28;20714;-75
2024/04/01 10:04:14;;;;;;;27.73;5.85;;;;;;;;;;6306870;28;19969;-75
2024/04/01 10:07:43;;;;;;;31.45;7.65;;;;;;;;;;6289183;28;20044;-75
2024/04/01 10:11:11;;;;;;;33.65;7.20;;;;;;;;;;6275826;28;20044;-76
2024/04/01 10:14:14;;;;;;;;;;;;;;;;;;6271936;28;20182;-76
2024/04/01 10:17:28;;;;;;;38.03;7.80;;;;;;;;;;6273781;28;20073;-74
2024/04/01 10:20:41;;;;;;;32.03;6.50;;;;;;;;;;6302830;28;20048;-74
2024/04/01 10:24:18;;;;;;;30.92;7.20;;;;;;;;;;6287205;28;20040;-75
2024/04/01 10:27:34;;;;;;;37.90;8.70;;;;;;;;;;6256954;28;20142;-76
2024/04/01 10:30:56;;;;;;;;;;;;;;;;;;6317230;28;20059;-76
2024/04/01 10:34:51;;;;;;;39.42;6.55;;;;;;;;;;6259331;28;20433;-75
2024/04/01 10:38:00;;;;;;;49.17;9.27;;;;;;;;;;6194124;28;20048;-74
2024/04/01 10:41:29;;;;;;;32.95;7.75;;;;;;;;;;6289478;28;20040;-75
2024/04/01 10:44:42;;;;;;;32.55;7.20;;;;;;;;;;6318834;28;20047;-75
2024/04/01 10:48:02;;;;;;;40.97;8.73;;;;;;;;;;6286245;28;20040;-75
2024/04/01 10:51:15;;;;;;;34.45;9.10;;;;;;;;;;6294664;28;20594;-75
2024/04/01 10:54:19;;;;;;;38.78;9.75;;;;;;;;;;6291625;28;20040;-75
2024/04/01 10:57:39;;;;;;;42.72;6.95;;;;;;;;;;6289389;28;20040;-75
2024/04/01 11:01:14;;;;;;;36.35;7.38;;;;;;;;;;6292835;28;20044;-75
2024/04/01 11:04:41;;;;;;;31.55;7.72;;;;;;;;;;6290028;28;20109;-78
2024/04/01 11:08:10;;;;;;;35.67;8.75;;;;;;;;;;6288383;28;20097;-76
2024/04/01 11:11:30;;;;;;;42.60;8.15;;;;;;;;;;6268910;28;20051;-76
2024/04/01 11:14:33;;;;;;;38.30;7.50;;;;;;;;;;6298233;28;20044;-76
2024/04/01 11:17:36;;;;;;;32.28;8.40;;;;;;;;;;6273839;28;20744;-76
2024/04/01 11:20:49;;;;;;;39.35;7.35;;;;;;;;;;6256324;28;20048;-76
2024/04/01 11:24:28;;;;;;;49.13;9.27;;;;;;;;;;6292103;28;20597;-76
2024/04/01 11:27:49;;;;;;;38.75;7.45;;;;;;;;;;6290082;28;20044;-76
2024/04/01 11:31:16;;;;;;;43.97;7.85;;;;;;;;;;6284119;28;20606;-76
2024/04/01 11:34:19;;;;;;;39.25;7.88;;;;;;;;;;6289255;28;20047;-75
2024/04/01 11:37:35;;;;;;;37.13;7.72;;;;;;;;;;6270373;28;20051;-76
2024/04/01 11:40:37;;;;;;;32.40;7.03;;;;;;;;;;6267937;28;20181;-76
2024/04/01 11:43:40;;;;;;;39.55;8.05;;;;;;;;;;6287398;28;20097;-75
2024/04/01 11:46:43;;;;;;;40.67;8.77;;;;;;;;;;6262421;28;20094;-73
2024/04/01 11:49:44;;;;;;;41.92;9.35;;;;;;;;;;6289384;28;20528;-75
2024/04/01 11:53:05;;;;;;;47.45;9.52;;;;;;;;;;6270491;28;20098;-75
2024/04/01 11:56:07;;;;;;;40.95;9.70;;;;;;;;;;6303752;28;20072;-75
2024/04/01 11:59:10;;;;;;;43.17;8.93;;;;;;;;;;6273161;28;20048;-74
2024/04/01 12:02:13;;;;;;;34.50;7.97;;;;;;;;;;6258887;28;20052;-75
2024/04/01 12:05:18;;;;;;;50.78;7.68;;;;;;;;;;6289651;28;20874;-75
2024/04/01 12:08:24;;;;;;;25.90;7.88;;;;;;;;;;6272908;28;20039;-75
2024/04/01 12:11:27;;;;;;;36.17;8.45;;;;;;;;;;6270676;28;20055;-75
2024/04/01 12:14:29;;;;;;;36.95;8.85;;;;;;;;;;6274171;28;20048;-75
2024/04/01 12:17:31;;;;;;;38.55;7.05;;;;;;;;;;6287802;28;20521;-76
2024/04/01 12:20:34;;;;;;;46.00;7.70;;;;;;;;;;6288526;28;20472;-75
2024/04/01 12:23:38;;;;;;;40.60;8.25;;;;;;;;;;6291177;28;20051;-74
2024/04/01 12:26:39;;;;;;;27.55;8.60;;;;;;;;;;6267592;28;20036;-75
2024/04/01 12:29:40;;;;;;;36.35;8.88;;;;;;;;;;6253386;28;20068;-76
2024/04/01 12:32:43;;;;;;;38.10;9.40;;;;;;;;;;6259133;28;20044;-75
2024/04/01 12:35:44;;;;;;;43.20;9.95;;;;;;;;;;6255172;28;20048;-76
2024/04/01 12:38:46;;;;;;;50.72;8.20;;;;;;;;;;6302447;28;20051;-76
2024/04/01 12:41:48;;;;;;;29.00;7.32;;;;;;;;;;6255390;28;20042;-76
2024/04/01 12:44:50;;;;;;;48.67;9.30;;;;;;;;;;6266726;28;20048;-76
2024/04/01 12:47:51;;;;;;;34.42;7.95;;;;;;;;;;6226040;28;20595;-76
2024/04/01 12:51:02;;;;;;;42.78;9.25;;;;;;;;;;6290582;28;20049;-76
2024/04/01 12:54:29;;;;;;;35.78;5.90;;;;;;;;;;6285499;28;20040;-76
2024/04/01 12:58:03;;;;;;;46.90;8.13;;;;;;;;;;6277996;28;20063;-76
2024/04/01 13:01:14;;;;;;;35.95;8.43;;;;;;;;;;6281299;28;20044;-75
2024/04/01 13:04:39;;;;;;;43.72;8.88;;;;;;;;;;6266119;28;20051;-76
2024/04/01 13:08:10;;;;;;;40.25;7.70;;;;;;;;;;6306215;28;20761;-76
2024/04/01 13:11:31;;;;;;;25.08;6.13;;;;;;;;;;6277481;28;20032;-76
2024/04/01 13:15:06;;;;;;;34.35;7.18;;;;;;;;;;6278512;28;20044;-75
2024/04/01 13:18:12;;;;;;;49.08;9.80;;;;;;;;;;6275440;28;20047;-75
2024/04/01 13:21:31;;;;;;;32.08;6.80;;;;;;;;;;6280154;28;20117;-79
2024/04/01 13:24:33;;;;;;;34.85;5.40;;;;;;;;;;6287280;28;20051;-76
2024/04/01 13:27:43;;;;;;;40.35;10.15;;;;;;;;;;6294489;28;20058;-76
2024/04/01 13:30:50;;;;;;;36.78;9.02;;;;;;;;;;6245180;28;20043;-75
2024/04/01 13:34:18;;;;;;;33.05;6.50;;;;;;;;;;6262733;28;20856;-75
2024/04/01 13:37:25;;;;;;;42.67;7.38;;;;;;;;;;6293996;28;20040;-75
2024/04/01 13:40:46;;;;;;;29.90;4.90;;;;;;;;;;6292976;28;20565;-75
2024/04/01 13:43:53;;;;;;;39.28;7.38;;;;;;;;;;6225785;28;20052;-74
2024/04/01 13:46:59;;;;;;;27.08;7.63;;;;;;;;;;6283317;28;20554;-74
2024/04/01 13:50:35;;;;;;;45.83;6.88;;;;;;;;;;6297966;28;20051;-75
2024/04/01 13:53:45;;;;;;;42.20;9.13;;;;;;;;;;6251071;28;20446;-75
2024/04/01 13:57:19;;;;;;;33.92;7.25;;;;;;;;;;6273907;28;20052;-74
2024/04/01 14:00:50;;;;;;;24.08;7.10;;;;;;;;;;6279222;28;20562;-74
2024/04/01 14:04:22;;;;;;;29.23;6.75;;;;;;;;;;6248476;28;20103;-74
2024/04/01 14:07:37;;;;;;;39.50;8.85;;;;;;;;;;6287494;28;20848;-74
2024/04/01 14:10:52;;;;;;;32.70;7.55;;;;;;;;;;6290407;28;20032;-73
2024/04/01 14:14:08;;;;;;;37.47;10.40;;;;;;;;;;6236768;28;20055;-74
2024/04/01 14:17:35;;;;;;;32.42;8.23;;;;;;;;;;6275533;28;20116;-74
2024/04/01 14:20:46;;;;;;;37.92;7.80;;;;;;;;;;6288716;28;20044;-74
2024/04/01 14:23:47;;;;;;;32.10;5.55;;;;;;;;;;6294192;28;20452;-75
2024/04/01 14:26:49;;;;;;;38.72;7.03;;;;;;;;;;6272368;28;20101;-75
2024/04/01 14:29:51;;;;;;;36.00;8.27;;;;;;;;;;6276444;28;20044;-74
2024/04/01 14:32:52;;;;;;;32.20;6.63;;;;;;;;;;6246769;28;20442;-75
2024/04/01 14:35:53;;;;;;;32.70;7.25;;;;;;;;;;6289922;28;20071;-75
2024/04/01 14:38:54;;;;;;;40.08;9.00;;;;;;;;;;6294649;28;20036;-74
2024/04/01 14:41:56;;;;;;;25.42;8.63;;;;;;;;;;6271892;28;20046;-73
2024/04/01 14:44:57;;;;;;;38.33;8.52;;;;;;;;;;6284205;28;20802;-73
2024/04/01 14:47:59;;;;;;;34.22;7.15;;;;;;;;;;6274651;28;20063;-73
2024/04/01 14:51:00;;;;;;;41.65;5.82;;;;;;;;;;6254052;28;20047;-73
2024/04/01 14:54:01;;;;;;;25.90;5.82;;;;;;;;;;6275070;28;20614;-73
2024/04/01 14:57:02;;;;;;;29.55;6.35;;;;;;;;;;6257705;28;20040;-73
2024/04/01 15:00:04;;;;;;;34.80;6.72;;;;;;;;;;6305303;28;20133;-73
2024/04/01 15:03:06;;;;;;;34.13;4.78;;;;;;;;;;6290780;28;20497;-73
2024/04/01 15:06:09;;;;;;;33.67;7.30;;;;;;;;;;6291788;28;20040;-73
2024/04/01 15:09:12;;;;;;;36.05;7.25;;;;;;;;;;6274018;28;20051;-74
2024/04/01 15:12:16;;;;;;;29.33;8.05;;;;;;;;;;6290351;28;20040;-74
2024/04/01 15:15:19;;;;;;;31.15;7.07;;;;;;;;;;6276587;28;20044;-74
2024/04/01 15:18:24;;;;;;;31.25;7.53;;;;;;;;;;6279792;28;20040;-75
2024/04/01 15:21:26;;;;;;;32.08;6.13;;;;;;;;;;6276748;28;20489;-74
2024/04/01 15:24:28;;;;;;;27.92;6.50;;;;;;;;;;6295802;28;20048;-75
2024/04/01 15:27:29;;;;;;;38.58;8.48;;;;;;;;;;6243842;28;20044;-74
2024/04/01 15:30:32;;;;;;;31.38;9.05;;;;;;;;;;6255597;28;20054;-74
2024/04/01 15:33:36;;;;;;;26.90;6.65;;;;;;;;;;6292369;28;20040;-74
2024/04/01 15:36:38;;;;;;;20.70;5.18;;;;;;;;;;6290063;28;20036;-74
2024/04/01 15:39:41;;;;;;;27.63;6.38;;;;;;;;;;6310750;28;20048;-73
2024/04/01 15:42:43;;;;;;;30.33;5.90;;;;;;;;;;6261296;28;20052;-73
2024/04/01 15:45:46;;;;;;;18.63;5.22;;;;;;;;;;6291275;28;20133;-74
2024/04/01 15:48:48;;;;;;;24.00;5.10;;;;;;;;;;6288929;28;20043;-74
2024/04/01 15:51:51;;;;;;;26.92;4.65;;;;;;;;;;6258444;28;20093;-74
2024/04/01 15:54:52;;;;;;;33.17;5.05;;;;;;;;;;6307277;28;20086;-75
2024/04/01 15:57:54;;;;;;;21.67;4.90;;;;;;;;;;6274782;28;20032;-75
2024/04/01 16:00:55;;;;;;;30.27;5.63;;;;;;;;;;6301922;28;20048;-75
2024/04/01 16:03:56;;;;;;;22.40;6.65;;;;;;;;;;6275528;28;20420;-75
2024/04/01 16:06:58;;;;;;;29.95;5.80;;;;;;;;;;6255229;28;20049;-74
2024/04/01 16:09:59;;;;;;;17.80;4.75;;;;;;;;;;6286242;28;20129;-74
2024/04/01 16:13:00;;;;;;;29.80;5.45;;;;;;;;;;6275071;28;20479;-74
2024/04/01 16:16:07;;;;;;;26.08;5.90;;;;;;;;;;6272931;28;20047;-75
2024/04/01 16:19:14;;;;;;;28.80;5.85;;;;;;;;;;6284513;28;20526;-74
2024/04/01 16:22:15;;;;;;;21.52;8.23;;;;;;;;;;6265033;28;20117;-73
2024/04/01 16:25:17;;;;;;;30.05;6.43;;;;;;;;;;6273331;28;20040;-74
2024/04/01 16:28:20;;;;;;;34.28;4.97;;;;;;;;;;6276122;28;20799;-74
2024/04/01 16:31:22;;;;;;;28.00;5.57;;;;;;;;;;6297461;28;20149;-73
2024/04/01 16:34:24;;;;;;;28.95;4.00;;;;;;;;;;6271044;28;20127;-74
2024/04/01 16:37:26;;;;;;;26.92;5.95;;;;;;;;;;6272326;28;20039;-73
2024/04/01 16:40:28;;;;;;;15.73;6.07;;;;;;;;;;6254944;28;20055;-73
2024/04/01 16:43:30;;;;;;;19.33;5.30;;;;;;;;;;6265726;28;20105;-74
2024/04/01 16:46:31;;;;;;;29.63;7.82;;;;;;;;;;6282124;28;20043;-74
2024/04/01 16:49:32;;;;;;;25.70;5.78;;;;;;;;;;6303109;28;20048;-74
2024/04/01 16:52:33;;;;;;;20.88;5.32;;;;;;;;;;6240572;28;20054;-74
2024/04/01 16:55:34;;;;;;;20.42;4.90;;;;;;;;;;6267323;28;20051;-74
2024/04/01 16:58:36;;;;;;;27.70;5.30;;;;;;;;;;6273338;28;20052;-74
2024/04/01 17:01:39;;;;;;;29.10;5.50;;;;;;;;;;6289744;28;20044;-74
2024/04/01 17:04:41;;;;;;;18.60;5.22;;;;;;;;;;6271725;28;20083;-74
2024/04/01 17:07:43;;;;;;;27.23;3.70;;;;;;;;;;6278324;28;20055;-73
2024/04/01 17:10:49;;;;;;;21.30;4.60;;;;;;;;;;6287213;28;20554;-74
2024/04/01 17:13:51;;;;;;;15.65;2.28;;;;;;;;;;6253485;28;20051;-74
2024/04/01 17:16:53;;;;;;;23.40;4.95;;;;;;;;;;6258874;28;20089;-74
2024/04/01 17:20:01;;;;;;;19.25;5.07;;;;;;;;;;6279407;28;20070;-74
2024/04/01 17:23:03;;;;;;;25.15;6.40;;;;;;;;;;6307276;28;20043;-73
2024/04/01 17:26:05;;;;;;;14.15;5.13;;;;;;;;;;6286212;28;20073;-73
2024/04/01 17:29:07;;;;;;;22.85;3.78;;;;;;;;;;6269593;28;20032;-74
2024/04/01 17:32:08;;;;;;;18.50;4.47;;;;;;;;;;6287295;28;20147;-74
2024/04/01 17:35:11;;;;;;;18.63;5.03;;;;;;;;;;6285209;28;20067;-74
2024/04/01 17:38:14;;;;;;;15.23;6.03;;;;;;;;;;6281074;28;20047;-74
2024/04/01 17:41:16;;;;;;;21.38;4.70;;;;;;;;;;6284892;28;20036;-74
2024/04/01 17:44:20;;;;;;;13.68;5.63;;;;;;;;;;6250381;28;20071;-73
2024/04/01 17:47:22;;;;;;;28.15;7.47;;;;;;;;;;6297471;28;20044;-75
2024/04/01 17:50:23;;;;;;;16.25;2.65;;;;;;;;;;6301477;28;20089;-74
2024/04/01 17:53:24;;;;;;;24.20;4.93;;;;;;;;;;6276572;28;20048;-75
2024/04/01 17:56:26;;;;;;;14.05;4.43;;;;;;;;;;6260721;28;20079;-75
2024/04/01 17:59:27;;;;;;;16.23;5.88;;;;;;;;;;6257650;28;20043;-75
2024/04/01 18:02:29;;;;;;;21.70;5.70;;;;;;;;;;6286552;28;20042;-75
2024/04/01 18:05:32;;;;;;;16.10;5.13;;;;;;;;;;6274012;28;20134;-75
2024/04/01 18:08:34;;;;;;;11.18;2.85;;;;;;;;;;6305864;28;20068;-75
2024/04/01 18:11:36;;;;;;;16.38;6.05;;;;;;;;;;6290049;28;20067;-75
2024/04/01 18:14:37;;;;;;;23.58;5.70;;;;;;;;;;6270996;28;20837;-75